createdAt,value
2017-08-08T00:00:21.329Z,1001.8
2017-08-08T00:01:22.119Z,1001.8
2017-08-08T00:02:23.206Z,1001.8
2017-08-08T00:03:24.012Z,1001.7
2017-08-08T00:04:24.762Z,1001.7
2017-08-08T00:05:25.493Z,1001.7
2017-08-08T00:06:26.216Z,1001.6
2017-08-08T00:07:27.192Z,1001.6
2017-08-08T00:08:27.933Z,1001.6
2017-08-08T00:09:28.707Z,1001.6
2017-08-08T00:10:29.435Z,1001.6
2017-08-08T00:11:30.182Z,1001.6
2017-08-08T00:12:31.370Z,1001.6
2017-08-08T00:13:32.181Z,1001.5
2017-08-08T00:14:32.991Z,1001.6
2017-08-08T00:15:33.739Z,1001.5
2017-08-08T00:16:34.433Z,1001.6
2017-08-08T00:17:35.471Z,1001.6
2017-08-08T00:18:36.279Z,1001.6
2017-08-08T00:19:37.016Z,1001.5
2017-08-08T00:20:37.823Z,1001.5
2017-08-08T00:21:38.557Z,1001.5
2017-08-08T00:22:39.656Z,1001.5
2017-08-08T00:23:40.396Z,1001.5
2017-08-08T00:24:41.198Z,1001.4
2017-08-08T00:25:42.012Z,1001.4
2017-08-08T00:26:42.748Z,1001.4
2017-08-08T00:27:43.957Z,1001.4
2017-08-08T00:28:44.685Z,1001.4
2017-08-08T00:29:45.418Z,1001.4
2017-08-08T00:30:46.154Z,1001.4
2017-08-08T00:31:46.921Z,1001.4
2017-08-08T00:32:48.070Z,1001.3
2017-08-08T00:33:48.806Z,1001.3
2017-08-08T00:34:49.540Z,1001.3
2017-08-08T00:35:50.350Z,1001.3
2017-08-08T00:36:51.073Z,1001.3
2017-08-08T00:37:52.121Z,1001.2
2017-08-08T00:38:52.942Z,1001.2
2017-08-08T00:39:53.667Z,1001.2
2017-08-08T00:40:54.411Z,1001.2
2017-08-08T00:41:55.209Z,1001.2
2017-08-08T00:42:56.289Z,1001.2
2017-08-08T00:43:57.028Z,1001.1
2017-08-08T00:44:57.772Z,1001.1
2017-08-08T00:45:58.521Z,1001.1
2017-08-08T00:46:59.261Z,1001.0
2017-08-08T00:48:00.451Z,1001.1
2017-08-08T00:49:01.272Z,1001.0
2017-08-08T00:50:02.001Z,1001.0
2017-08-08T00:51:02.809Z,1000.9
2017-08-08T00:52:03.543Z,1000.9
2017-08-08T00:53:04.351Z,1000.9
2017-08-08T00:54:05.447Z,1000.9
2017-08-08T00:55:06.243Z,1000.9
2017-08-08T00:56:07.053Z,1000.9
2017-08-08T00:57:07.877Z,1000.9
2017-08-08T00:58:08.614Z,1000.8
2017-08-08T00:59:09.411Z,1000.8
2017-08-08T01:00:10.539Z,1000.8
2017-08-08T01:01:11.283Z,1000.8
2017-08-08T01:02:12.031Z,1000.8
2017-08-08T01:03:12.831Z,1000.8
2017-08-08T01:04:13.560Z,1000.8
2017-08-08T01:05:14.299Z,1000.8
2017-08-08T01:06:15.039Z,1000.8
2017-08-08T01:07:15.770Z,1000.8
2017-08-08T01:08:16.583Z,1000.8
2017-08-08T01:09:17.356Z,1000.8
2017-08-08T01:10:18.079Z,1000.8
2017-08-08T01:11:18.817Z,1000.7
2017-08-08T01:12:19.856Z,1000.8
2017-08-08T01:13:20.649Z,1000.8
2017-08-08T01:14:22.354Z,1000.8
2017-08-08T01:16:24.989Z,1000.8
2017-08-08T01:17:27.101Z,1000.8
2017-08-08T01:18:28.807Z,1000.7
2017-08-08T01:19:30.136Z,1000.7
2017-08-08T01:20:31.969Z,1000.7
2017-08-08T01:21:33.848Z,1000.7
2017-08-08T01:22:35.833Z,1000.7
2017-08-08T01:23:36.734Z,1000.6
2017-08-08T01:24:37.432Z,1000.6
2017-08-08T01:25:38.172Z,1000.6
2017-08-08T01:26:38.984Z,1000.6
2017-08-08T01:27:40.065Z,1000.6
2017-08-08T01:28:40.792Z,1000.6
2017-08-08T01:29:41.514Z,1000.6
2017-08-08T01:30:42.324Z,1000.6
2017-08-08T01:31:43.076Z,1000.6
2017-08-08T01:32:44.283Z,1000.6
2017-08-08T01:33:45.009Z,1000.6
2017-08-08T01:34:45.823Z,1000.6
2017-08-08T01:35:46.552Z,1000.5
2017-08-08T01:36:47.290Z,1000.5
2017-08-08T01:37:48.318Z,1000.5
2017-08-08T01:38:49.061Z,1000.4
2017-08-08T01:39:49.866Z,1000.4
2017-08-08T01:40:50.585Z,1000.5
2017-08-08T01:41:51.317Z,1000.4
2017-08-08T01:42:52.465Z,1000.4
2017-08-08T01:43:53.199Z,1000.5
2017-08-08T01:44:53.934Z,1000.4
2017-08-08T01:45:54.743Z,1000.4
2017-08-08T01:46:55.494Z,1000.3
2017-08-08T01:47:57.613Z,1000.3
2017-08-08T01:48:58.708Z,1000.3
2017-08-08T01:50:00.726Z,1000.3
2017-08-08T01:51:01.488Z,1000.3
2017-08-08T01:52:03.023Z,1000.2
2017-08-08T01:53:04.709Z,1000.2
2017-08-08T01:54:06.566Z,1000.2
2017-08-08T01:55:07.251Z,1000.1
2017-08-08T01:56:07.988Z,1000.1
2017-08-08T01:57:08.808Z,1000.1
2017-08-08T01:58:09.817Z,1000.1
2017-08-08T01:59:10.582Z,1000.1
2017-08-08T02:00:11.309Z,1000.1
2017-08-08T02:01:12.069Z,1000.1
2017-08-08T02:02:12.784Z,1000.1
2017-08-08T02:03:13.996Z,1000.1
2017-08-08T02:04:14.801Z,1000.0
2017-08-08T02:05:15.545Z,1000.0
2017-08-08T02:06:16.268Z,1000.0
2017-08-08T02:07:16.980Z,999.9
2017-08-08T02:08:17.707Z,999.9
2017-08-08T02:09:18.852Z,999.9
2017-08-08T02:10:19.571Z,999.9
2017-08-08T02:11:20.308Z,999.9
2017-08-08T02:12:21.052Z,999.9
2017-08-08T02:13:21.866Z,999.9
2017-08-08T02:14:22.594Z,999.8
2017-08-08T02:15:23.399Z,999.8
2017-08-08T02:16:24.133Z,999.9
2017-08-08T02:17:24.873Z,999.9
2017-08-08T02:18:25.589Z,999.9
2017-08-08T02:19:26.770Z,999.9
2017-08-08T02:20:27.524Z,999.9
2017-08-08T02:21:28.329Z,999.9
2017-08-08T02:22:29.129Z,999.9
2017-08-08T02:23:29.928Z,999.9
2017-08-08T02:24:31.082Z,999.9
2017-08-08T02:25:31.797Z,999.9
2017-08-08T02:26:32.534Z,999.8
2017-08-08T02:27:33.327Z,999.9
2017-08-08T02:28:34.048Z,999.8
2017-08-08T02:29:35.198Z,999.9
2017-08-08T02:30:35.978Z,999.8
2017-08-08T02:31:36.708Z,999.8
2017-08-08T02:32:37.521Z,999.8
2017-08-08T02:33:38.276Z,999.8
2017-08-08T02:34:39.388Z,999.8
2017-08-08T02:35:40.128Z,999.8
2017-08-08T02:36:40.867Z,999.8
2017-08-08T02:37:41.608Z,999.8
2017-08-08T02:38:42.412Z,999.8
2017-08-08T02:39:43.402Z,999.8
2017-08-08T02:40:44.135Z,999.7
2017-08-08T02:41:44.857Z,999.7
2017-08-08T02:42:45.597Z,999.7
2017-08-08T02:43:46.328Z,999.6
2017-08-08T02:44:47.514Z,999.7
2017-08-08T02:45:48.245Z,999.6
2017-08-08T02:46:48.972Z,999.6
2017-08-08T02:47:49.774Z,999.6
2017-08-08T02:48:50.556Z,999.6
2017-08-08T02:49:51.302Z,999.6
2017-08-08T02:50:52.101Z,999.6
2017-08-08T02:51:53.320Z,999.6
2017-08-08T02:52:54.062Z,999.6
2017-08-08T02:53:54.844Z,999.5
2017-08-08T02:54:55.582Z,999.5
2017-08-08T02:55:56.318Z,999.5
2017-08-08T02:56:57.306Z,999.5
2017-08-08T02:57:58.041Z,999.5
2017-08-08T02:58:58.759Z,999.5
2017-08-08T02:59:59.586Z,999.5
2017-08-08T03:01:00.361Z,999.5
2017-08-08T03:02:01.430Z,999.5
2017-08-08T03:03:02.170Z,999.5
2017-08-08T03:04:02.903Z,999.5
2017-08-08T03:05:03.634Z,999.4
2017-08-08T03:06:04.410Z,999.4
2017-08-08T03:07:05.553Z,999.4
2017-08-08T03:08:06.370Z,999.4
2017-08-08T03:09:07.138Z,999.4
2017-08-08T03:10:07.861Z,999.4
2017-08-08T03:11:08.592Z,999.4
2017-08-08T03:12:09.751Z,999.4
2017-08-08T03:13:10.559Z,999.4
2017-08-08T03:14:11.357Z,999.4
2017-08-08T03:15:12.084Z,999.4
2017-08-08T03:16:12.822Z,999.4
2017-08-08T03:17:13.849Z,999.4
2017-08-08T03:18:14.593Z,999.4
2017-08-08T03:19:15.347Z,999.4
2017-08-08T03:20:16.077Z,999.3
2017-08-08T03:21:16.807Z,999.3
2017-08-08T03:22:17.939Z,999.3
2017-08-08T03:23:18.719Z,999.3
2017-08-08T03:24:19.452Z,999.3
2017-08-08T03:25:20.216Z,999.2
2017-08-08T03:26:20.956Z,999.2
2017-08-08T03:27:22.038Z,999.2
2017-08-08T03:28:22.763Z,999.2
2017-08-08T03:29:23.504Z,999.2
2017-08-08T03:30:24.231Z,999.3
2017-08-08T03:31:24.979Z,999.2
2017-08-08T03:32:26.132Z,999.2
2017-08-08T03:33:26.857Z,999.2
2017-08-08T03:34:27.591Z,999.2
2017-08-08T03:35:28.387Z,999.2
2017-08-08T03:36:29.122Z,999.2
2017-08-08T03:37:30.238Z,999.2
2017-08-08T03:38:30.968Z,999.2
2017-08-08T03:39:31.723Z,999.2
2017-08-08T03:40:32.449Z,999.2
2017-08-08T03:41:33.189Z,999.1
2017-08-08T03:42:33.928Z,999.1
2017-08-08T03:43:34.725Z,999.1
2017-08-08T03:44:35.943Z,999.1
2017-08-08T03:45:36.672Z,999.1
2017-08-08T03:46:37.412Z,999.0
2017-08-08T03:47:38.160Z,999.0
2017-08-08T03:48:38.929Z,998.9
2017-08-08T03:49:40.023Z,998.9
2017-08-08T03:50:40.752Z,998.9
2017-08-08T03:51:41.490Z,998.8
2017-08-08T03:52:42.288Z,998.8
2017-08-08T03:53:43.022Z,998.8
2017-08-08T03:54:44.053Z,998.8
2017-08-08T03:55:44.873Z,998.7
2017-08-08T03:56:45.596Z,998.7
2017-08-08T03:57:46.347Z,998.7
2017-08-08T03:58:47.140Z,998.7
2017-08-08T03:59:48.224Z,998.7
2017-08-08T04:00:48.958Z,998.7
2017-08-08T04:01:49.716Z,998.7
2017-08-08T04:02:50.505Z,998.8
2017-08-08T04:03:51.250Z,998.7
2017-08-08T04:04:52.404Z,998.7
2017-08-08T04:05:53.122Z,998.7
2017-08-08T04:06:53.919Z,998.6
2017-08-08T04:07:54.650Z,998.6
2017-08-08T04:08:55.382Z,998.6
2017-08-08T04:09:56.420Z,998.6
2017-08-08T04:10:57.203Z,998.6
2017-08-08T04:11:57.948Z,998.6
2017-08-08T04:12:58.670Z,998.6
2017-08-08T04:13:59.472Z,998.6
2017-08-08T04:15:00.534Z,998.6
2017-08-08T04:16:01.335Z,998.6
2017-08-08T04:17:02.119Z,998.6
2017-08-08T04:18:02.860Z,998.6
2017-08-08T04:19:03.592Z,998.7
2017-08-08T04:20:04.324Z,998.6
2017-08-08T04:21:05.073Z,998.6
2017-08-08T04:22:05.794Z,998.6
2017-08-08T04:23:06.596Z,998.6
2017-08-08T04:24:07.671Z,998.6
2017-08-08T04:25:08.474Z,998.6
2017-08-08T04:26:09.293Z,998.6
2017-08-08T04:27:10.020Z,998.6
2017-08-08T04:28:10.763Z,998.5
2017-08-08T04:29:11.861Z,998.5
2017-08-08T04:30:12.647Z,998.5
2017-08-08T04:31:13.464Z,998.5
2017-08-08T04:32:14.238Z,998.4
2017-08-08T04:33:14.991Z,998.4
2017-08-08T04:34:16.067Z,998.3
2017-08-08T04:35:16.801Z,998.3
2017-08-08T04:36:17.531Z,998.3
2017-08-08T04:37:18.272Z,998.4
2017-08-08T04:38:19.010Z,998.3
2017-08-08T04:39:19.736Z,998.3
2017-08-08T04:40:20.549Z,998.3
2017-08-08T04:41:21.599Z,998.3
2017-08-08T04:42:22.342Z,998.3
2017-08-08T04:43:23.076Z,998.3
2017-08-08T04:44:23.814Z,998.3
2017-08-08T04:45:24.548Z,998.3
2017-08-08T04:46:25.357Z,998.3
2017-08-08T04:47:26.444Z,998.2
2017-08-08T04:48:27.182Z,998.3
2017-08-08T04:49:27.921Z,998.3
2017-08-08T04:50:28.668Z,998.2
2017-08-08T04:51:29.408Z,998.3
2017-08-08T04:52:30.660Z,998.3
2017-08-08T04:53:31.460Z,998.3
2017-08-08T04:54:32.236Z,998.3
2017-08-08T04:55:32.973Z,998.3
2017-08-08T04:56:33.697Z,998.3
2017-08-08T04:57:34.437Z,998.3
2017-08-08T04:58:35.544Z,998.3
2017-08-08T04:59:36.325Z,998.3
2017-08-08T05:00:37.062Z,998.3
2017-08-08T05:01:37.811Z,998.3
2017-08-08T05:02:38.560Z,998.3
2017-08-08T05:03:39.696Z,998.3
2017-08-08T05:04:40.426Z,998.3
2017-08-08T05:05:41.233Z,998.3
2017-08-08T05:06:42.031Z,998.3
2017-08-08T05:07:42.777Z,998.3
2017-08-08T05:08:43.860Z,998.3
2017-08-08T05:09:44.602Z,998.3
2017-08-08T05:10:45.417Z,998.2
2017-08-08T05:11:46.105Z,998.2
2017-08-08T05:12:46.846Z,998.2
2017-08-08T05:13:47.581Z,998.2
2017-08-08T05:14:48.390Z,998.2
2017-08-08T05:15:49.131Z,998.2
2017-08-08T05:16:50.276Z,998.2
2017-08-08T05:17:51.049Z,998.1
2017-08-08T05:18:51.779Z,998.2
2017-08-08T05:19:52.519Z,998.2
2017-08-08T05:20:53.316Z,998.1
2017-08-08T05:21:54.416Z,998.1
2017-08-08T05:22:55.152Z,998.1
2017-08-08T05:23:55.887Z,998.2
2017-08-08T05:24:56.640Z,998.2
2017-08-08T05:25:57.371Z,998.2
2017-08-08T05:26:58.460Z,998.2
2017-08-08T05:27:59.208Z,998.2
2017-08-08T05:28:59.950Z,998.1
2017-08-08T05:30:00.679Z,998.1
2017-08-08T05:31:01.410Z,998.1
2017-08-08T05:32:02.248Z,998.1
2017-08-08T05:33:03.243Z,998.1
2017-08-08T05:34:03.937Z,998.1
2017-08-08T05:35:04.690Z,998.0
2017-08-08T05:36:05.430Z,998.0
2017-08-08T05:37:06.152Z,997.9
2017-08-08T05:38:07.199Z,997.9
2017-08-08T05:39:07.960Z,997.9
2017-08-08T05:40:08.733Z,997.9
2017-08-08T05:41:09.479Z,997.9
2017-08-08T05:42:10.251Z,997.9
2017-08-08T05:43:11.326Z,997.8
2017-08-08T05:44:12.067Z,997.8
2017-08-08T05:45:12.846Z,997.7
2017-08-08T05:46:13.558Z,997.7
2017-08-08T05:47:14.367Z,997.7
2017-08-08T05:48:15.499Z,997.7
2017-08-08T05:49:16.227Z,997.7
2017-08-08T05:50:16.948Z,997.7
2017-08-08T05:51:17.691Z,997.7
2017-08-08T05:52:18.445Z,997.6
2017-08-08T05:53:19.468Z,997.6
2017-08-08T05:54:20.212Z,997.6
2017-08-08T05:55:20.937Z,997.6
2017-08-08T05:56:21.671Z,997.6
2017-08-08T05:57:22.432Z,997.6
2017-08-08T05:58:23.586Z,997.6
2017-08-08T05:59:24.327Z,997.6
2017-08-08T06:00:25.122Z,997.6
2017-08-08T06:01:25.871Z,997.6
2017-08-08T06:02:26.618Z,997.6
2017-08-08T06:03:27.563Z,997.7
2017-08-08T06:04:28.383Z,997.6
2017-08-08T06:05:29.183Z,997.6
2017-08-08T06:06:29.971Z,997.6
2017-08-08T06:07:30.697Z,997.6
2017-08-08T06:08:31.729Z,997.6
2017-08-08T06:09:32.467Z,997.7
2017-08-08T06:10:33.202Z,997.6
2017-08-08T06:11:33.941Z,997.6
2017-08-08T06:12:34.699Z,997.6
2017-08-08T06:13:35.905Z,997.7
2017-08-08T06:14:36.642Z,997.7
2017-08-08T06:15:37.376Z,997.6
2017-08-08T06:16:38.120Z,997.6
2017-08-08T06:17:38.905Z,997.6
2017-08-08T06:18:39.922Z,997.5
2017-08-08T06:19:40.627Z,997.6
2017-08-08T06:20:41.375Z,997.6
2017-08-08T06:21:42.168Z,997.7
2017-08-08T06:22:42.911Z,997.7
2017-08-08T06:23:43.706Z,997.7
2017-08-08T06:24:45.607Z,997.8
2017-08-08T06:25:46.346Z,997.7
2017-08-08T06:26:47.101Z,997.7
2017-08-08T06:27:47.904Z,997.7
2017-08-08T06:28:48.659Z,997.7
2017-08-08T06:29:49.841Z,997.7
2017-08-08T06:30:50.673Z,997.7
2017-08-08T06:31:51.467Z,997.7
2017-08-08T06:32:52.215Z,997.7
2017-08-08T06:33:52.954Z,997.7
2017-08-08T06:34:54.112Z,997.8
2017-08-08T06:35:54.924Z,997.7
2017-08-08T06:36:55.672Z,997.6
2017-08-08T06:37:56.503Z,997.7
2017-08-08T06:38:58.449Z,997.6
2017-08-08T06:40:01.128Z,997.6
2017-08-08T06:41:03.209Z,997.7
2017-08-08T06:42:04.141Z,997.7
2017-08-08T06:43:04.908Z,997.7
2017-08-08T06:44:05.811Z,997.8
2017-08-08T06:45:06.751Z,997.7
2017-08-08T06:46:07.493Z,997.7
2017-08-08T06:47:08.322Z,997.7
2017-08-08T06:48:09.066Z,997.6
2017-08-08T06:49:09.885Z,997.6
2017-08-08T06:50:10.874Z,997.6
2017-08-08T06:51:11.659Z,997.6
2017-08-08T06:52:12.396Z,997.6
2017-08-08T06:53:13.147Z,997.6
2017-08-08T06:54:13.928Z,997.5
2017-08-08T06:55:15.022Z,997.6
2017-08-08T06:56:15.837Z,997.6
2017-08-08T06:57:16.589Z,997.7
2017-08-08T06:58:17.325Z,997.7
2017-08-08T06:59:18.115Z,997.7
2017-08-08T07:00:19.307Z,997.7
2017-08-08T07:01:20.026Z,997.7
2017-08-08T07:02:20.761Z,997.7
2017-08-08T07:03:21.509Z,997.7
2017-08-08T07:04:22.252Z,997.7
2017-08-08T07:05:23.277Z,997.6
2017-08-08T07:06:23.993Z,997.6
2017-08-08T07:07:24.739Z,997.5
2017-08-08T07:08:25.478Z,997.5
2017-08-08T07:09:26.215Z,997.5
2017-08-08T07:10:27.338Z,997.5
2017-08-08T07:11:28.092Z,997.4
2017-08-08T07:12:28.901Z,997.5
2017-08-08T07:13:29.694Z,997.5
2017-08-08T07:14:30.450Z,997.6
2017-08-08T07:15:31.583Z,997.6
2017-08-08T07:16:32.481Z,997.5
2017-08-08T07:17:33.255Z,997.5
2017-08-08T07:18:33.996Z,997.5
2017-08-08T07:19:34.738Z,997.5
2017-08-08T07:20:35.905Z,997.5
2017-08-08T07:21:36.724Z,997.5
2017-08-08T07:22:37.476Z,997.5
2017-08-08T07:23:38.231Z,997.5
2017-08-08T07:24:39.033Z,997.5
2017-08-08T07:25:40.145Z,997.5
2017-08-08T07:26:40.871Z,997.4
2017-08-08T07:27:41.661Z,997.5
2017-08-08T07:28:42.409Z,997.5
2017-08-08T07:29:43.215Z,997.5
2017-08-08T07:30:44.171Z,997.5
2017-08-08T07:31:44.989Z,997.5
2017-08-08T07:32:45.820Z,997.6
2017-08-08T07:33:46.636Z,997.6
2017-08-08T07:34:47.366Z,997.5
2017-08-08T07:35:48.431Z,997.5
2017-08-08T07:36:49.144Z,997.5
2017-08-08T07:37:49.964Z,997.4
2017-08-08T07:38:50.973Z,997.5
2017-08-08T07:39:51.682Z,997.5
2017-08-08T07:40:52.807Z,997.4
2017-08-08T07:41:54.712Z,997.4
2017-08-08T07:42:55.680Z,997.4
2017-08-08T07:43:56.444Z,997.4
2017-08-08T07:44:57.182Z,997.3
2017-08-08T07:45:58.427Z,997.3
2017-08-08T07:46:59.177Z,997.2
2017-08-08T07:47:59.922Z,997.2
2017-08-08T07:49:00.761Z,997.2
2017-08-08T07:50:01.501Z,997.2
2017-08-08T07:51:02.675Z,997.2
2017-08-08T07:52:03.502Z,997.3
2017-08-08T07:53:04.237Z,997.2
2017-08-08T07:54:04.977Z,997.3
2017-08-08T07:55:05.739Z,997.2
2017-08-08T07:56:06.830Z,997.2
2017-08-08T07:57:07.566Z,997.2
2017-08-08T07:58:08.317Z,997.2
2017-08-08T07:59:09.057Z,997.3
2017-08-08T08:00:09.801Z,997.3
2017-08-08T08:01:10.588Z,997.2
2017-08-08T08:02:11.396Z,997.2
2017-08-08T08:03:12.146Z,997.2
2017-08-08T08:04:13.293Z,997.2
2017-08-08T08:05:14.015Z,997.2
2017-08-08T08:06:14.817Z,997.2
2017-08-08T08:07:15.556Z,997.2
2017-08-08T08:08:16.420Z,997.1
2017-08-08T08:09:17.562Z,997.1
2017-08-08T08:10:18.379Z,997.1
2017-08-08T08:11:19.194Z,997.0
2017-08-08T08:12:20.023Z,997.0
2017-08-08T08:13:20.785Z,997.0
2017-08-08T08:14:21.562Z,997.0
2017-08-08T08:15:22.311Z,997.0
2017-08-08T08:16:23.298Z,997.0
2017-08-08T08:17:24.049Z,996.9
2017-08-08T08:18:24.863Z,996.9
2017-08-08T08:19:25.601Z,997.0
2017-08-08T08:20:26.424Z,997.0
2017-08-08T08:21:27.419Z,997.0
2017-08-08T08:22:28.212Z,996.9
2017-08-08T08:23:28.968Z,996.9
2017-08-08T08:24:29.734Z,996.9
2017-08-08T08:25:30.512Z,996.9
2017-08-08T08:26:31.651Z,996.9
2017-08-08T08:27:32.389Z,996.8
2017-08-08T08:28:33.197Z,996.8
2017-08-08T08:29:33.956Z,996.8
2017-08-08T08:30:34.688Z,996.7
2017-08-08T08:31:35.896Z,996.8
2017-08-08T08:32:36.704Z,996.7
2017-08-08T08:33:37.520Z,996.7
2017-08-08T08:34:38.388Z,996.7
2017-08-08T08:35:39.219Z,996.7
2017-08-08T08:36:40.354Z,996.7
2017-08-08T08:37:41.167Z,996.7
2017-08-08T08:38:42.035Z,996.7
2017-08-08T08:39:42.910Z,996.7
2017-08-08T08:40:43.706Z,996.6
2017-08-08T08:41:44.919Z,996.6
2017-08-08T08:42:45.664Z,996.7
2017-08-08T08:43:46.489Z,996.7
2017-08-08T08:44:47.239Z,996.6
2017-08-08T08:45:47.976Z,996.6
2017-08-08T08:46:49.186Z,996.6
2017-08-08T08:47:50.085Z,996.5
2017-08-08T08:48:51.415Z,996.5
2017-08-08T08:49:52.107Z,996.5
2017-08-08T08:50:52.851Z,996.5
2017-08-08T08:51:53.905Z,996.5
2017-08-08T08:52:54.947Z,996.4
2017-08-08T08:53:56.050Z,996.4
2017-08-08T08:54:57.211Z,996.4
2017-08-08T08:55:57.969Z,996.3
2017-08-08T08:56:58.766Z,996.3
2017-08-08T08:57:59.953Z,996.3
2017-08-08T08:59:00.730Z,996.3
2017-08-08T09:00:01.970Z,996.2
2017-08-08T09:01:02.769Z,996.2
2017-08-08T09:02:03.597Z,996.3
2017-08-08T09:03:04.388Z,996.2
2017-08-08T09:04:05.146Z,996.3
2017-08-08T09:05:06.357Z,996.2
2017-08-08T09:06:07.113Z,996.2
2017-08-08T09:07:07.851Z,996.2
2017-08-08T09:08:08.597Z,996.2
2017-08-08T09:09:09.350Z,996.2
2017-08-08T09:10:10.568Z,996.2
2017-08-08T09:11:11.311Z,996.1
2017-08-08T09:12:12.135Z,996.1
2017-08-08T09:13:12.884Z,996.1
2017-08-08T09:14:13.703Z,996.1
2017-08-08T09:15:14.710Z,996.1
2017-08-08T09:16:15.502Z,996.0
2017-08-08T09:17:16.240Z,996.0
2017-08-08T09:18:17.047Z,996.0
2017-08-08T09:19:17.802Z,996.1
2017-08-08T09:20:18.942Z,996.0
2017-08-08T09:21:19.700Z,996.0
2017-08-08T09:22:20.532Z,996.0
2017-08-08T09:23:21.283Z,996.0
2017-08-08T09:24:22.021Z,996.0
2017-08-08T09:25:23.018Z,996.0
2017-08-08T09:26:23.781Z,996.1
2017-08-08T09:27:24.606Z,996.1
2017-08-08T09:28:25.364Z,996.0
2017-08-08T09:29:26.154Z,996.1
2017-08-08T09:30:26.912Z,996.0
2017-08-08T09:31:28.131Z,996.1
2017-08-08T09:32:28.880Z,996.0
2017-08-08T09:33:29.676Z,996.0
2017-08-08T09:34:30.420Z,996.0
2017-08-08T09:35:31.163Z,996.0
2017-08-08T09:36:32.301Z,996.0
2017-08-08T09:37:33.056Z,995.9
2017-08-08T09:38:33.872Z,995.9
2017-08-08T09:39:34.707Z,996.0
2017-08-08T09:40:35.449Z,996.0
2017-08-08T09:41:36.577Z,996.0
2017-08-08T09:42:37.330Z,996.0
2017-08-08T09:43:38.080Z,995.9
2017-08-08T09:44:38.835Z,995.9
2017-08-08T09:45:39.629Z,996.0
2017-08-08T09:46:40.644Z,995.9
2017-08-08T09:47:41.463Z,996.0
2017-08-08T09:48:42.295Z,995.9
2017-08-08T09:49:43.116Z,995.9
2017-08-08T09:50:43.938Z,995.9
2017-08-08T09:51:44.930Z,995.9
2017-08-08T09:52:45.741Z,995.9
2017-08-08T09:53:46.499Z,996.0
2017-08-08T09:54:47.233Z,995.9
2017-08-08T09:55:48.056Z,996.0
2017-08-08T09:56:49.161Z,995.9
2017-08-08T09:57:49.904Z,995.9
2017-08-08T09:58:50.754Z,995.9
2017-08-08T09:59:51.588Z,996.0
2017-08-08T10:00:52.303Z,995.9
2017-08-08T10:01:53.130Z,995.9
2017-08-08T10:02:53.944Z,996.0
2017-08-08T10:03:54.770Z,995.9
2017-08-08T10:04:55.512Z,996.0
2017-08-08T10:05:56.312Z,996.0
2017-08-08T10:06:57.464Z,996.0
2017-08-08T10:07:58.215Z,995.9
2017-08-08T10:08:58.970Z,995.9
2017-08-08T10:09:59.703Z,996.0
2017-08-08T10:11:00.449Z,996.0
2017-08-08T10:12:01.596Z,996.0
2017-08-08T10:13:02.339Z,996.0
2017-08-08T10:14:03.156Z,995.9
2017-08-08T10:15:03.899Z,995.9
2017-08-08T10:16:04.641Z,995.9
2017-08-08T10:17:05.796Z,995.9
2017-08-08T10:18:06.537Z,995.9
2017-08-08T10:19:07.278Z,995.8
2017-08-08T10:20:08.032Z,995.8
2017-08-08T10:21:08.843Z,995.9
2017-08-08T10:22:09.943Z,995.9
2017-08-08T10:23:10.679Z,995.9
2017-08-08T10:24:11.510Z,995.9
2017-08-08T10:25:12.252Z,995.9
2017-08-08T10:26:12.978Z,995.9
2017-08-08T10:27:13.927Z,995.9
2017-08-08T10:28:14.741Z,995.9
2017-08-08T10:29:15.486Z,995.9
2017-08-08T10:30:16.316Z,995.9
2017-08-08T10:31:17.073Z,995.9
2017-08-08T10:32:18.212Z,995.8
2017-08-08T10:33:18.958Z,995.9
2017-08-08T10:34:19.724Z,995.8
2017-08-08T10:35:20.520Z,995.8
2017-08-08T10:36:21.322Z,995.9
2017-08-08T10:37:22.417Z,995.9
2017-08-08T10:38:23.240Z,995.9
2017-08-08T10:39:23.994Z,995.9
2017-08-08T10:40:24.884Z,995.9
2017-08-08T10:41:25.661Z,995.9
2017-08-08T10:42:26.751Z,995.9
2017-08-08T10:43:27.494Z,995.9
2017-08-08T10:44:28.307Z,995.8
2017-08-08T10:45:29.067Z,995.8
2017-08-08T10:46:29.867Z,995.7
2017-08-08T10:47:31.041Z,995.7
2017-08-08T10:48:31.861Z,995.8
2017-08-08T10:49:32.604Z,995.8
2017-08-08T10:50:33.353Z,995.8
2017-08-08T10:51:34.112Z,995.8
2017-08-08T10:52:34.922Z,995.8
2017-08-08T10:53:35.908Z,995.8
2017-08-08T10:54:36.732Z,995.7
2017-08-08T10:55:37.567Z,995.8
2017-08-08T10:56:38.668Z,995.7
2017-08-08T10:57:39.426Z,995.7
2017-08-08T10:58:40.177Z,995.7
2017-08-08T10:59:40.929Z,995.7
2017-08-08T11:00:41.666Z,995.7
2017-08-08T11:01:42.807Z,995.8
2017-08-08T11:02:43.569Z,995.8
2017-08-08T11:03:44.392Z,995.8
2017-08-08T11:04:45.208Z,995.8
2017-08-08T11:05:45.941Z,995.8
2017-08-08T11:06:47.099Z,995.9
2017-08-08T11:07:47.925Z,995.9
2017-08-08T11:08:48.756Z,996.0
2017-08-08T11:09:49.512Z,996.0
2017-08-08T11:10:50.232Z,996.0
2017-08-08T11:11:51.096Z,995.9
2017-08-08T11:12:51.898Z,995.9
2017-08-08T11:13:53.008Z,995.9
2017-08-08T11:14:53.748Z,995.9
2017-08-08T11:15:54.497Z,995.9
2017-08-08T11:16:55.246Z,995.9
2017-08-08T11:17:56.068Z,995.9
2017-08-08T11:18:57.168Z,995.9
2017-08-08T11:19:57.926Z,995.9
2017-08-08T11:20:58.733Z,995.9
2017-08-08T11:21:59.571Z,995.9
2017-08-08T11:23:00.373Z,995.9
2017-08-08T11:24:01.587Z,995.9
2017-08-08T11:25:02.416Z,995.9
2017-08-08T11:26:03.167Z,995.9
2017-08-08T11:27:03.925Z,995.9
2017-08-08T11:28:04.691Z,995.8
2017-08-08T11:29:05.442Z,995.8
2017-08-08T11:30:06.196Z,995.8
2017-08-08T11:31:07.009Z,995.7
2017-08-08T11:32:07.947Z,995.8
2017-08-08T11:33:08.696Z,995.8
2017-08-08T11:34:09.452Z,995.7
2017-08-08T11:35:10.222Z,995.7
2017-08-08T11:36:10.967Z,995.7
2017-08-08T11:37:12.018Z,995.7
2017-08-08T11:38:12.831Z,995.7
2017-08-08T11:39:13.646Z,995.6
2017-08-08T11:40:14.340Z,995.7
2017-08-08T11:41:15.076Z,995.6
2017-08-08T11:42:16.221Z,995.6
2017-08-08T11:43:16.981Z,995.7
2017-08-08T11:44:17.720Z,995.7
2017-08-08T11:45:18.533Z,995.7
2017-08-08T11:46:19.327Z,995.7
2017-08-08T11:47:20.470Z,995.7
2017-08-08T11:48:21.209Z,995.7
2017-08-08T11:49:21.952Z,995.7
2017-08-08T11:50:22.698Z,995.7
2017-08-08T11:51:23.454Z,995.6
2017-08-08T11:52:24.228Z,995.6
2017-08-08T11:53:25.045Z,995.6
2017-08-08T11:54:26.237Z,995.6
2017-08-08T11:55:26.989Z,995.6
2017-08-08T11:56:27.764Z,995.6
2017-08-08T11:57:28.566Z,995.5
2017-08-08T11:58:29.316Z,995.5
2017-08-08T11:59:30.299Z,995.5
2017-08-08T12:00:31.045Z,995.5
2017-08-08T12:01:31.856Z,995.5
2017-08-08T12:02:32.549Z,995.5
2017-08-08T12:03:33.281Z,995.5
2017-08-08T12:04:34.366Z,995.5
2017-08-08T12:05:35.106Z,995.5
2017-08-08T12:06:35.847Z,995.5
2017-08-08T12:07:36.589Z,995.5
2017-08-08T12:08:37.338Z,995.5
2017-08-08T12:09:38.510Z,995.5
2017-08-08T12:10:39.254Z,995.6
2017-08-08T12:11:40.052Z,995.6
2017-08-08T12:12:40.860Z,995.5
2017-08-08T12:13:41.651Z,995.6
2017-08-08T12:14:42.689Z,995.6
2017-08-08T12:15:43.505Z,995.6
2017-08-08T12:16:44.260Z,995.6
2017-08-08T12:17:44.999Z,995.6
2017-08-08T12:18:45.749Z,995.6
2017-08-08T12:19:46.944Z,995.6
2017-08-08T12:20:47.750Z,995.6
2017-08-08T12:21:48.498Z,995.6
2017-08-08T12:22:49.311Z,995.6
2017-08-08T12:23:50.060Z,995.6
2017-08-08T12:24:51.200Z,995.6
2017-08-08T12:25:51.948Z,995.6
2017-08-08T12:26:52.783Z,995.7
2017-08-08T12:27:53.619Z,995.7
2017-08-08T12:28:54.357Z,995.7
2017-08-08T12:29:55.461Z,995.7
2017-08-08T12:30:56.198Z,995.7
2017-08-08T12:31:56.934Z,995.7
2017-08-08T12:32:57.739Z,995.7
2017-08-08T12:33:58.505Z,995.7
2017-08-08T12:34:59.590Z,995.7
2017-08-08T12:36:00.413Z,995.7
2017-08-08T12:37:01.210Z,995.7
2017-08-08T12:38:02.009Z,995.7
2017-08-08T12:39:02.792Z,995.7
2017-08-08T12:40:03.911Z,995.7
2017-08-08T12:41:04.661Z,995.7
2017-08-08T12:42:05.400Z,995.7
2017-08-08T12:43:06.139Z,995.7
2017-08-08T12:44:06.913Z,995.7
2017-08-08T12:45:07.864Z,995.7
2017-08-08T12:46:08.671Z,995.7
2017-08-08T12:47:09.409Z,995.7
2017-08-08T12:48:10.205Z,995.7
2017-08-08T12:49:10.949Z,995.7
2017-08-08T12:50:11.746Z,995.7
2017-08-08T12:51:12.524Z,995.7
2017-08-08T12:52:13.370Z,995.7
2017-08-08T12:53:14.117Z,995.7
2017-08-08T12:54:15.157Z,995.6
2017-08-08T12:55:15.889Z,995.6
2017-08-08T12:56:16.696Z,995.6
2017-08-08T12:57:17.499Z,995.7
2017-08-08T12:58:18.281Z,995.7
2017-08-08T12:59:19.382Z,995.7
2017-08-08T13:00:20.212Z,995.6